Time;durP1;ratioP1;P1;durP2;ratioP2;P2;SDS_P1;SDS_P2;PMS_P1;PMS_P2;Temp;Humidity;BMP_temperature;BMP_pressure;BME280_temperature;BME280_humidity;BME280_pressure;Samples;Min_cycle;Max_cycle;Signal;HPM_P1;HPM_P2
2023/10/08 00:01:08;;;;;;;1999.90;999.90;;;;;;;17.43;100.00;102119.66;10541472;28;20381;-70
2023/10/08 00:06:14;;;;;;;1999.90;999.90;;;;;;;17.48;100.00;102124.63;10540013;28;20374;-71
2023/10/08 00:11:17;;;;;;;1999.90;999.90;;;;;;;17.52;100.00;102127.97;10524474;28;20123;-71
2023/10/08 00:16:21;;;;;;;1999.90;999.90;;;;;;;17.35;100.00;102150.22;10539746;28;20054;-71
2023/10/08 00:21:27;;;;;;;1999.90;999.90;;;;;;;17.36;100.00;102138.69;10540214;28;20056;-71
2023/10/08 00:26:31;;;;;;;1999.90;999.90;;;;;;;17.15;100.00;102136.47;10540503;28;20070;-70
2023/10/08 00:31:38;;;;;;;1999.90;999.90;;;;;;;17.30;100.00;102139.94;10540916;28;20048;-71
2023/10/08 00:36:45;;;;;;;1999.90;999.90;;;;;;;17.28;100.00;102155.03;10540267;28;20083;-71
2023/10/08 00:41:49;;;;;;;1999.90;999.90;;;;;;;17.27;100.00;102158.66;10522803;28;20044;-71
2023/10/08 00:46:51;;;;;;;1999.90;999.90;;;;;;;17.14;100.00;102166.53;10539306;28;20123;-71
2023/10/08 00:52:00;;;;;;;1999.90;999.90;;;;;;;17.20;100.00;102171.44;10540379;28;20056;-70
2023/10/08 00:57:07;;;;;;;1999.90;999.90;;;;;;;17.17;100.00;102174.28;10522983;28;20119;-71
2023/10/08 01:02:14;;;;;;;1999.90;999.90;;;;;;;17.18;100.00;102170.69;10538879;28;20052;-70
2023/10/08 01:07:17;;;;;;;1999.90;999.90;;;;;;;17.07;100.00;102155.47;10540046;28;20050;-71
2023/10/08 01:17:26;;;;;;;1999.90;999.90;;;;;;;17.00;100.00;102145.41;10539021;28;20385;-70
2023/10/08 01:22:29;;;;;;;1999.90;999.90;;;;;;;17.01;100.00;102153.25;10451183;22;20056;-70
2023/10/08 01:27:34;;;;;;;1999.90;999.90;;;;;;;16.97;100.00;102133.19;10408450;28;20065;-70
2023/10/08 01:32:37;;;;;;;1999.90;999.90;;;;;;;16.93;100.00;102134.34;10409748;28;20102;-70
2023/10/08 01:37:40;;;;;;;1999.90;999.90;;;;;;;17.02;100.00;102154.09;10408267;28;20128;-71
2023/10/08 01:42:42;;;;;;;1999.90;999.90;;;;;;;16.85;100.00;102150.69;10408798;28;20132;-70
2023/10/08 01:47:45;;;;;;;1999.90;999.90;;;;;;;16.76;100.00;102148.59;10391216;28;20053;-70
2023/10/08 01:52:48;;;;;;;1999.90;999.90;;;;;;;16.82;100.00;102150.00;10407297;28;20114;-70
2023/10/08 01:57:51;;;;;;;1999.90;999.90;;;;;;;16.83;100.00;102155.19;10408399;28;20068;-70
2023/10/08 02:02:54;;;;;;;1999.90;999.90;;;;;;;16.81;100.00;102158.88;10408250;28;20046;-70
2023/10/08 02:07:58;;;;;;;1999.90;999.90;;;;;;;16.77;100.00;102147.63;10408107;28;20057;-71
2023/10/08 02:13:01;;;;;;;1999.90;999.90;;;;;;;16.67;100.00;102171.16;10412834;28;20056;-70
2023/10/08 02:18:04;;;;;;;1999.90;999.90;;;;;;;16.55;100.00;102184.28;10414876;28;20129;-70
2023/10/08 02:23:06;;;;;;;1999.90;999.90;;;;;;;16.58;100.00;102182.31;10414163;28;20054;-71
2023/10/08 02:28:10;;;;;;;1999.90;999.90;;;;;;;16.63;100.00;102190.81;10414483;28;20052;-71
2023/10/08 02:33:15;;;;;;;1999.90;999.90;;;;;;;16.63;100.00;102204.03;10414406;28;20053;-70
2023/10/08 02:38:21;;;;;;;1999.90;999.90;;;;;;;16.54;100.00;102196.63;10414251;28;20054;-71
2023/10/08 02:43:24;;;;;;;1999.90;999.90;;;;;;;16.76;100.00;102203.28;10413495;28;20537;-70
2023/10/08 02:48:27;;;;;;;1999.90;999.90;;;;;;;16.68;100.00;102212.53;10413187;28;20534;-70
2023/10/08 02:53:29;;;;;;;1999.90;999.90;;;;;;;16.52;100.00;102240.81;10413769;28;20132;-70
2023/10/08 02:58:36;;;;;;;1999.90;999.90;;;;;;;16.52;100.00;102211.75;10411767;28;20476;-70
2023/10/08 03:03:42;;;;;;;1999.90;999.90;;;;;;;16.63;100.00;102171.47;10412888;28;20620;-70
2023/10/08 03:08:47;;;;;;;1999.90;999.90;;;;;;;16.54;100.00;102194.00;10411515;28;20263;-70
2023/10/08 03:13:52;;;;;;;1999.90;999.90;;;;;;;16.40;100.00;102215.97;10413162;28;20084;-70
2023/10/08 03:18:57;;;;;;;1999.90;999.90;;;;;;;16.42;100.00;102219.38;10412964;28;20105;-71
2023/10/08 03:23:59;;;;;;;1999.90;999.90;;;;;;;16.49;100.00;102219.84;10412719;28;20079;-70
2023/10/08 03:29:07;;;;;;;1999.90;999.90;;;;;;;16.73;100.00;102204.31;10412074;28;20478;-71
2023/10/08 03:34:18;;;;;;;1999.90;999.90;;;;;;;16.27;100.00;102200.03;10411888;28;20509;-70
2023/10/08 03:39:21;;;;;;;1999.90;999.90;;;;;;;16.14;100.00;102210.44;10412375;28;20054;-70
2023/10/08 03:44:24;;;;;;;1999.90;999.90;;;;;;;16.12;100.00;102243.16;10412082;28;20079;-70
2023/10/08 03:49:27;;;;;;;1999.90;999.90;;;;;;;16.22;100.00;102233.75;10410803;28;20114;-70
2023/10/08 03:54:29;;;;;;;1999.90;999.90;;;;;;;16.32;100.00;102223.50;10411189;28;20408;-70
2023/10/08 03:59:34;;;;;;;1999.90;999.90;;;;;;;16.12;100.00;102195.63;10411654;28;20054;-70
2023/10/08 04:04:49;;;;;;;1999.90;999.90;;;;;;;15.94;100.00;102202.84;10410773;28;20553;-70
2023/10/08 04:09:59;;;;;;;1999.90;999.90;;;;;;;16.20;100.00;102240.94;10410220;28;20088;-70
2023/10/08 04:15:07;;;;;;;1999.90;999.90;;;;;;;15.83;100.00;102261.53;10411290;28;20109;-70
2023/10/08 04:20:38;;;;;;;1999.90;999.90;;;;;;;15.98;100.00;102247.44;10409471;28;20053;-70
2023/10/08 04:25:42;;;;;;;1999.90;999.90;;;;;;;16.03;100.00;102281.53;10410805;28;20049;-70
2023/10/08 04:30:47;;;;;;;1999.90;999.90;;;;;;;16.25;100.00;102288.25;10410599;28;20060;-70
2023/10/08 04:35:55;;;;;;;1999.90;999.90;;;;;;;16.07;100.00;102304.22;10409976;28;20046;-70
2023/10/08 04:41:01;;;;;;;1999.90;999.90;;;;;;;16.31;100.00;102298.47;10410410;28;20053;-70
2023/10/08 04:46:08;;;;;;;1999.90;999.90;;;;;;;16.17;100.00;102296.59;10409621;28;20052;-70
2023/10/08 04:51:12;;;;;;;1999.90;999.90;;;;;;;16.07;100.00;102306.88;10410045;28;20102;-70
2023/10/08 04:56:22;;;;;;;1999.90;999.90;;;;;;;16.25;100.00;102309.38;10410032;28;20049;-70
2023/10/08 05:01:38;;;;;;;1999.90;999.90;;;;;;;16.01;100.00;102294.00;10409301;28;20106;-70
2023/10/08 05:06:50;;;;;;;1999.90;999.90;;;;;;;16.20;100.00;102292.94;10409672;28;20052;-70
2023/10/08 05:17:09;;;;;;;1999.90;999.90;;;;;;;16.11;100.00;102276.66;10408866;28;20409;-70
2023/10/08 05:27:38;;;;;;;1999.90;999.90;;;;;;;16.19;100.00;102293.88;10407449;28;20042;-70
2023/10/08 05:38:22;;;;;;;1999.90;999.90;;;;;;;15.76;100.00;102348.16;10408285;28;20515;-70
2023/10/08 05:48:50;;;;;;;1999.90;999.90;;;;;;;15.15;100.00;102354.91;10414531;28;20045;-70
2023/10/08 05:53:56;;;;;;;1999.90;999.90;;;;;;;14.90;100.00;102367.66;10415108;28;20382;-70
2023/10/08 05:59:14;;;;;;;1999.90;999.90;;;;;;;15.04;100.00;102376.56;10415586;28;20048;-70
2023/10/08 06:09:39;;;;;;;1999.90;999.90;;;;;;;14.60;100.00;102374.38;10414623;28;20435;-70
2023/10/08 06:14:52;;;;;;;1999.90;999.90;;;;;;;14.53;100.00;102372.94;10397960;28;20095;-70
2023/10/08 06:19:55;;;;;;;1999.90;999.90;;;;;;;14.59;100.00;102419.25;10414678;28;20058;-70
2023/10/08 06:25:16;;;;;;;1999.90;999.90;;;;;;;14.29;100.00;102422.41;10412887;28;20046;-70
2023/10/08 06:30:19;;;;;;;1999.90;999.90;;;;;;;14.30;100.00;102408.31;10414600;28;20056;-70
2023/10/08 06:35:25;;;;;;;1999.90;999.90;;;;;;;14.00;100.00;102400.06;10413738;28;20053;-70
2023/10/08 06:45:41;;;;;;;1999.90;999.90;;;;;;;14.22;100.00;102450.84;10413435;28;20049;-70
2023/10/08 06:50:45;;;;;;;1999.90;999.90;;;;;;;14.09;100.00;102460.22;10412187;28;20499;-70
2023/10/08 06:55:56;;;;;;;1999.90;999.90;;;;;;;14.21;100.00;102448.28;10412280;28;20051;-70
2023/10/08 07:01:04;;;;;;;1999.90;999.90;;;;;;;14.03;100.00;102460.50;10411972;28;20049;-70
2023/10/08 07:06:16;;;;;;;1999.90;999.90;;;;;;;14.15;100.00;102467.81;10411736;28;20095;-70
2023/10/08 07:11:20;;;;;;;1999.90;999.90;;;;;;;14.08;100.00;102461.13;10411740;28;20057;-70
2023/10/08 07:16:22;;;;;;;1999.90;999.90;;;;;;;13.91;100.00;102481.19;10411962;28;20077;-70
2023/10/08 07:21:44;;;;;;;1999.90;999.90;;;;;;;13.93;100.00;102474.06;10412127;28;20064;-69
2023/10/08 07:26:49;;;;;;;1999.90;999.90;;;;;;;13.93;100.00;102467.94;10412713;28;20050;-69
2023/10/08 07:31:54;;;;;;;1999.90;999.90;;;;;;;14.21;100.00;102470.19;10411144;28;20054;-69
2023/10/08 07:36:56;;;;;;;1999.90;999.90;;;;;;;14.33;100.00;102483.72;10412480;28;20096;-70
2023/10/08 07:42:01;;;;;;;1999.90;999.90;;;;;;;14.26;100.00;102486.63;10412330;28;20049;-70
2023/10/08 07:47:11;;;;;;;1999.90;999.90;;;;;;;14.21;100.00;102486.00;10410265;28;20486;-70
2023/10/08 07:52:15;;;;;;;1999.90;999.90;;;;;;;14.25;100.00;102490.19;10410251;28;20561;-70
2023/10/08 07:57:25;;;;;;;1999.90;999.90;;;;;;;14.15;100.00;102494.16;10411755;28;20375;-70
2023/10/08 08:02:28;;;;;;;1999.90;999.90;;;;;;;14.31;100.00;102494.34;10411652;28;20051;-70
2023/10/08 08:07:31;;;;;;;1999.90;999.90;;;;;;;14.41;100.00;102481.59;10410645;28;20049;-70
2023/10/08 08:12:33;;;;;;;1999.90;999.90;;;;;;;14.75;100.00;102499.31;10409465;28;20409;-70
2023/10/08 08:17:35;;;;;;;1999.90;999.90;;;;;;;14.51;100.00;102506.59;10411296;28;20050;-70
2023/10/08 08:22:40;;;;;;;1999.90;999.90;;;;;;;14.47;100.00;102513.78;10410590;28;20062;-70
2023/10/08 08:27:48;;;;;;;1999.90;999.90;;;;;;;14.13;100.00;102525.84;10409561;28;20052;-70
2023/10/08 08:32:51;;;;;;;1999.90;999.90;;;;;;;14.52;100.00;102537.25;10410720;28;20098;-70
2023/10/08 08:37:55;;;;;;;1999.90;999.90;;;;;;;13.82;100.00;102542.16;10409862;28;20528;-70
2023/10/08 08:42:58;;;;;;;1999.90;999.90;;;;;;;14.25;100.00;102556.03;10410393;28;20054;-70
2023/10/08 08:48:01;;;;;;;1999.90;999.90;;;;;;;14.32;100.00;102551.34;10410170;28;20128;-70
2023/10/08 08:53:04;;;;;;;1999.90;999.90;;;;;;;14.70;100.00;102551.41;10408967;28;20053;-70
2023/10/08 08:58:11;;;;;;;1999.90;999.90;;;;;;;14.51;100.00;102551.38;10409314;28;20507;-70
2023/10/08 09:03:13;;;;;;;1999.90;999.90;;;;;;;14.56;100.00;102554.66;10409899;28;20080;-70
2023/10/08 09:08:18;;;;;;;1999.90;999.90;;;;;;;14.77;100.00;102552.81;10409563;28;20045;-70
2023/10/08 09:13:25;;;;;;;1999.90;999.90;;;;;;;15.05;100.00;102556.78;10407823;28;20136;-70
2023/10/08 09:18:27;;;;;;;1999.90;999.90;;;;;;;14.91;100.00;102561.84;10392447;28;20056;-70
2023/10/08 09:23:30;;;;;;;1999.90;999.90;;;;;;;15.15;100.00;102552.78;10415810;28;20087;-70
2023/10/08 09:28:34;;;;;;;1999.90;999.90;;;;;;;15.14;100.00;102548.41;10416444;28;20049;-70
2023/10/08 09:33:36;;;;;;;1999.90;999.90;;;;;;;15.04;100.00;102547.16;10415780;28;20050;-70
2023/10/08 09:38:39;;;;;;;1999.90;999.90;;;;;;;15.14;100.00;102539.66;10414987;28;20049;-70
2023/10/08 09:43:43;;;;;;;1999.90;999.90;;;;;;;15.50;100.00;102538.75;10414393;28;20390;-70
2023/10/08 09:48:53;;;;;;;1999.90;999.90;;;;;;;15.49;100.00;102535.25;10415836;28;20050;-70
2023/10/08 09:54:17;;;;;;;1999.90;999.90;;;;;;;14.96;100.00;102533.47;10415831;28;20081;-70
2023/10/08 09:59:19;;;;;;;1999.90;999.90;;;;;;;15.67;100.00;102543.16;10414926;28;20405;-70
2023/10/08 10:04:28;;;;;;;1999.90;999.90;;;;;;;15.67;100.00;102549.31;10414216;28;20085;-70
2023/10/08 10:09:36;;;;;;;1999.90;999.90;;;;;;;15.29;100.00;102552.09;10414053;28;20049;-70
2023/10/08 10:14:59;;;;;;;1999.90;999.90;;;;;;;15.50;100.00;102544.03;10415286;28;20068;-70
2023/10/08 10:20:03;;;;;;;1999.90;999.90;;;;;;;15.73;100.00;102545.50;10413230;28;20140;-69
2023/10/08 10:25:20;;;;;;;1999.90;999.90;;;;;;;15.76;100.00;102554.16;10413595;28;20136;-70
2023/10/08 10:30:23;;;;;;;1999.90;999.90;;;;;;;15.51;100.00;102551.03;10413173;28;20059;-70
2023/10/08 10:35:27;;;;;;;1999.90;999.90;;;;;;;15.66;100.00;102549.41;10414225;28;20045;-70
2023/10/08 10:40:39;;;;;;;1999.90;999.90;;;;;;;15.83;100.00;102548.56;10414256;28;20053;-70
2023/10/08 10:45:46;;;;;;;1999.90;999.90;;;;;;;15.70;100.00;102553.56;10412941;28;20056;-70
2023/10/08 10:56:11;;;;;;;1999.90;999.90;;;;;;;16.18;100.00;102549.34;10412803;28;20051;-70
2023/10/08 11:01:25;;;;;;;1999.90;999.90;;;;;;;16.18;100.00;102549.34;10413130;28;20045;-69
2023/10/08 11:06:28;;;;;;;1999.90;999.90;;;;;;;15.71;100.00;102547.38;10412243;28;20050;-69
2023/10/08 11:11:31;;;;;;;1999.90;999.90;;;;;;;16.02;100.00;102538.75;10412168;28;20053;-70
2023/10/08 11:16:33;;;;;;;1999.90;999.90;;;;;;;16.10;100.00;102538.31;10412505;28;20073;-69
2023/10/08 11:21:55;;;;;;;1999.90;999.90;;;;;;;16.19;100.00;102531.69;10412159;28;20085;-69
2023/10/08 11:27:16;;;;;;;1999.90;999.90;;;;;;;16.15;100.00;102531.88;10412167;28;20067;-70
2023/10/08 11:32:25;;;;;;;1999.90;999.90;;;;;;;16.12;100.00;102529.41;10412042;28;20482;-69
2023/10/08 11:37:35;;;;;;;1999.90;999.90;;;;;;;16.00;100.00;102526.53;10412540;28;20045;-70
2023/10/08 11:47:42;;;;;;;1999.90;999.90;;;;;;;15.92;100.00;102525.16;10412007;28;20049;-70
2023/10/08 11:52:45;;;;;;;1999.90;999.90;;;;;;;15.26;100.00;102531.13;10411949;28;20118;-69
2023/10/08 11:57:52;;;;;;;1999.90;999.90;;;;;;;15.36;100.00;102531.53;10410697;28;20052;-69
2023/10/08 12:02:54;;;;;;;1999.90;999.90;;;;;;;16.01;100.00;102518.53;10411037;28;20120;-69
2023/10/08 12:07:57;;;;;;;1999.90;999.90;;;;;;;15.90;100.00;102507.66;10411393;28;20090;-71
2023/10/08 12:13:04;;;;;;;1999.90;999.90;;;;;;;15.71;100.00;102511.25;10410714;28;20533;-70
2023/10/08 12:18:08;;;;;;;1999.90;999.90;;;;;;;15.74;100.00;102513.72;10410573;28;20054;-69
2023/10/08 12:23:18;;;;;;;1999.90;999.90;;;;;;;15.81;100.00;102502.88;10410122;28;20437;-70
2023/10/08 12:28:23;;;;;;;1999.90;999.90;;;;;;;16.13;100.00;102501.19;10409786;28;20181;-70
2023/10/08 12:33:26;;;;;;;1999.90;999.90;;;;;;;15.69;100.00;102485.88;10410863;28;20091;-70
2023/10/08 12:38:28;;;;;;;1999.90;999.90;;;;;;;16.18;100.00;102472.72;10409432;28;20069;-70
2023/10/08 12:43:31;;;;;;;1999.90;999.90;;;;;;;17.02;100.00;102464.47;10409827;28;20478;-69
2023/10/08 12:48:33;;;;;;;1999.90;999.90;;;;;;;16.97;100.00;102458.59;10408407;28;20057;-70
2023/10/08 12:53:39;;;;;;;1999.90;999.90;;;;;;;17.13;100.00;102444.47;10409822;28;20053;-69
2023/10/08 12:58:48;;;;;;;1999.90;999.90;;;;;;;17.04;100.00;102435.28;10410015;28;20049;-69
2023/10/08 13:03:53;;;;;;;1999.90;999.90;;;;;;;16.75;100.00;102429.88;10408716;28;20053;-69
2023/10/08 13:08:59;;;;;;;1999.90;999.90;;;;;;;16.58;100.00;102428.19;10408509;28;20129;-69
2023/10/08 13:14:02;;;;;;;1999.90;999.90;;;;;;;16.52;100.00;102431.19;10409005;28;20455;-69
2023/10/08 13:19:08;;;;;;;1999.90;999.90;;;;;;;16.77;100.00;102425.34;10408811;28;20422;-69
2023/10/08 13:24:11;;;;;;;1999.90;999.90;;;;;;;16.53;100.00;102415.22;10408558;28;20060;-69
2023/10/08 13:29:18;;;;;;;1999.90;999.90;;;;;;;16.76;100.00;102412.19;10409062;28;20046;-69
2023/10/08 13:34:21;;;;;;;1999.90;999.90;;;;;;;16.96;100.00;102403.97;10430094;22;20089;-69
2023/10/08 13:39:23;;;;;;;1999.90;999.90;;;;;;;16.75;100.00;102406.06;10624216;28;20051;-69
2023/10/08 13:44:28;;;;;;;1999.90;999.90;;;;;;;16.45;100.00;102400.75;10623442;28;20126;-69
2023/10/08 13:49:33;;;;;;;1999.90;999.90;;;;;;;16.62;100.00;102399.78;10623956;28;20048;-69
2023/10/08 13:54:41;;;;;;;1999.90;999.90;;;;;;;17.03;100.00;102399.19;10623282;28;20126;-69
2023/10/08 13:59:44;;;;;;;1999.90;999.90;;;;;;;17.08;100.00;102403.28;10606759;28;20074;-69
2023/10/08 14:04:50;;;;;;;1999.90;999.90;;;;;;;16.82;100.00;102407.41;10605537;28;20067;-69
2023/10/08 14:09:53;;;;;;;1999.90;999.90;;;;;;;17.09;100.00;102399.66;10630349;27;20043;-70
2023/10/08 14:14:56;;;;;;;1999.90;999.90;;;;;;;16.63;100.00;102412.06;10631344;27;20074;-69
2023/10/08 14:20:07;;;;;;;1999.90;999.90;;;;;;;16.86;100.00;102406.34;10631084;27;20054;-69
2023/10/08 14:25:14;;;;;;;1999.90;999.90;;;;;;;16.38;100.00;102408.19;10614144;27;20043;-69
2023/10/08 14:30:21;;;;;;;1999.90;999.90;;;;;;;16.71;100.00;102393.97;10611886;27;20131;-69
2023/10/08 14:46:08;;;;;;;1999.90;999.90;;;;;;;16.25;100.00;102397.44;10630303;27;20127;-69
2023/10/08 14:51:19;;;;;;;1999.90;999.90;;;;;;;16.48;100.00;102384.72;10612372;27;20058;-70
2023/10/08 14:56:23;;;;;;;1999.90;999.90;;;;;;;16.62;100.00;102370.69;10629801;27;20127;-70
2023/10/08 15:01:25;;;;;;;1999.90;999.90;;;;;;;16.37;100.00;102372.09;10610813;27;20300;-69
2023/10/08 15:06:28;;;;;;;1999.90;999.90;;;;;;;16.39;100.00;102367.59;10628527;27;20127;-69
2023/10/08 15:11:30;;;;;;;1999.90;999.90;;;;;;;16.14;100.00;102371.63;10629078;27;20126;-69
2023/10/08 15:16:33;;;;;;;1999.90;999.90;;;;;;;16.51;100.00;102352.81;10628843;27;20078;-69
2023/10/08 15:21:35;;;;;;;1999.90;999.90;;;;;;;16.33;100.00;102358.22;10628089;27;20484;-70
2023/10/08 15:26:41;;;;;;;1999.90;999.90;;;;;;;16.50;100.00;102349.31;10628395;27;20051;-69
2023/10/08 15:31:45;;;;;;;1999.90;999.90;;;;;;;16.13;100.00;102355.84;10628324;27;20047;-69
2023/10/08 15:36:47;;;;;;;1999.90;999.90;;;;;;;16.30;100.00;102344.31;10592378;27;20518;-69
2023/10/08 15:41:50;;;;;;;1999.90;999.90;;;;;;;15.88;100.00;102344.00;10609680;27;20054;-69
2023/10/08 15:46:53;;;;;;;1999.90;999.90;;;;;;;16.51;100.00;102344.91;10609420;27;20058;-69
2023/10/08 15:51:55;;;;;;;1999.90;999.90;;;;;;;16.25;100.00;102354.31;10608620;27;20495;-69
2023/10/08 15:56:57;;;;;;;1999.90;999.90;;;;;;;15.96;100.00;102354.16;10626577;27;20138;-70
2023/10/08 16:02:00;;;;;;;1999.90;999.90;;;;;;;16.16;100.00;102348.59;10627017;27;20054;-70
2023/10/08 16:07:02;;;;;;;1999.90;999.90;;;;;;;16.04;100.00;102346.66;10626760;27;20047;-69
2023/10/08 16:12:05;;;;;;;1999.90;999.90;;;;;;;15.86;100.00;102345.88;10626608;27;20061;-69
2023/10/08 16:17:11;;;;;;;1999.90;999.90;;;;;;;15.51;100.00;102339.84;10626454;27;20051;-69
2023/10/08 16:22:14;;;;;;;1999.90;999.90;;;;;;;15.44;100.00;102334.06;10626276;27;20053;-69
2023/10/08 16:27:19;;;;;;;1999.90;999.90;;;;;;;15.63;100.00;102338.34;10626005;27;20126;-69
2023/10/08 16:32:21;;;;;;;1999.90;999.90;;;;;;;15.64;100.00;102332.97;10624627;27;20137;-69
2023/10/08 16:37:24;;;;;;;1999.90;999.90;;;;;;;15.55;100.00;102328.19;10607009;27;20051;-69
2023/10/08 16:42:26;;;;;;;1999.90;999.90;;;;;;;15.28;100.00;102317.31;10625394;27;20055;-70
2023/10/08 16:47:28;;;;;;;1999.90;999.90;;;;;;;15.48;100.00;102322.38;10624574;27;20476;-69
2023/10/08 16:52:31;;;;;;;1999.90;999.90;;;;;;;15.35;100.00;102309.00;10606594;27;20069;-69
2023/10/08 16:57:33;;;;;;;1999.90;999.90;;;;;;;15.24;100.00;102319.28;10625081;27;20050;-69
2023/10/08 17:02:36;;;;;;;1999.90;999.90;;;;;;;15.24;100.00;102311.34;10624254;27;20043;-69
2023/10/08 17:07:38;;;;;;;1999.90;999.90;;;;;;;15.26;100.00;102311.28;10624616;27;20095;-69
2023/10/08 17:12:41;;;;;;;1999.90;999.90;;;;;;;15.25;100.00;102302.53;10623787;27;20485;-70
2023/10/08 17:17:43;;;;;;;1999.90;999.90;;;;;;;15.07;100.00;102309.63;10624864;28;20051;-69
2023/10/08 17:22:46;;;;;;;1999.90;999.90;;;;;;;14.86;100.00;102293.97;10624531;28;20047;-69
2023/10/08 17:27:48;;;;;;;1999.90;999.90;;;;;;;14.90;100.00;102291.19;10605517;28;20471;-69
2023/10/08 17:32:52;;;;;;;1999.90;999.90;;;;;;;14.72;100.00;102279.81;10623664;28;20548;-70
2023/10/08 17:37:55;;;;;;;1999.90;999.90;;;;;;;14.68;100.00;102265.94;10623552;28;20055;-69
2023/10/08 17:42:58;;;;;;;1999.90;999.90;;;;;;;14.38;100.00;102266.50;10629889;27;20057;-69
2023/10/08 17:48:01;;;;;;;1999.90;999.90;;;;;;;14.43;100.00;102266.28;10631781;27;20499;-69
2023/10/08 17:53:08;;;;;;;1999.90;999.90;;;;;;;14.40;100.00;102259.38;10614085;27;20047;-69
2023/10/08 17:58:10;;;;;;;1999.90;999.90;;;;;;;14.28;100.00;102260.84;10614494;27;20043;-69
2023/10/08 18:03:12;;;;;;;1999.90;999.90;;;;;;;14.37;100.00;102248.16;10631704;27;20075;-69
2023/10/08 18:08:15;;;;;;;1999.90;999.90;;;;;;;14.38;100.00;102241.97;10630884;27;20403;-69
2023/10/08 18:13:18;;;;;;;1999.90;999.90;;;;;;;14.32;100.00;102240.47;10631449;27;20063;-70
2023/10/08 18:18:25;;;;;;;1999.90;999.90;;;;;;;14.34;100.00;102225.47;10631186;27;20047;-69
2023/10/08 18:23:28;;;;;;;1999.90;999.90;;;;;;;14.18;100.00;102220.09;10631059;27;20134;-69
2023/10/08 18:28:30;;;;;;;1999.90;999.90;;;;;;;13.86;100.00;102201.47;10612471;27;20043;-69
2023/10/08 18:33:38;;;;;;;1999.90;999.90;;;;;;;13.83;100.00;102192.88;10612461;27;20047;-69
2023/10/08 18:38:41;;;;;;;1999.90;999.90;;;;;;;13.74;100.00;102191.53;10611463;27;20059;-69
2023/10/08 18:43:44;;;;;;;1999.90;999.90;;;;;;;13.82;100.00;102204.31;10595114;27;20047;-69
2023/10/08 18:48:47;;;;;;;1999.90;999.90;;;;;;;13.73;100.00;102192.47;10629904;27;20075;-69
2023/10/08 18:53:50;;;;;;;1999.90;999.90;;;;;;;13.83;100.00;102184.97;10629250;27;20126;-69
2023/10/08 18:58:53;;;;;;;1999.90;999.90;;;;;;;13.83;100.00;102193.72;10629572;27;20547;-69
2023/10/08 19:03:55;;;;;;;1999.90;999.90;;;;;;;13.86;100.00;102198.00;10610666;27;20047;-69
2023/10/08 19:09:01;;;;;;;1999.90;999.90;;;;;;;13.79;100.00;102199.22;10610979;27;20055;-69
2023/10/08 19:14:04;;;;;;;1999.90;999.90;;;;;;;13.92;100.00;102195.06;10628633;27;20402;-69
2023/10/08 19:19:08;;;;;;;1999.90;999.90;;;;;;;13.78;100.00;102182.56;10628852;27;20119;-69
2023/10/08 19:24:10;;;;;;;1999.90;999.90;;;;;;;13.66;100.00;102180.53;10628664;27;20050;-69
2023/10/08 19:29:13;;;;;;;1999.90;999.90;;;;;;;13.70;100.00;102184.72;10628411;27;20054;-69
2023/10/08 19:34:15;;;;;;;1999.90;999.90;;;;;;;13.64;100.00;102177.97;10627340;27;20571;-68
2023/10/08 19:39:18;;;;;;;1999.90;999.90;;;;;;;13.26;100.00;102180.59;10627464;27;20047;-69
2023/10/08 19:44:20;;;;;;;1999.90;999.90;;;;;;;13.01;100.00;102168.59;10627150;27;20051;-69
2023/10/08 19:49:22;;;;;;;1999.90;999.90;;;;;;;13.29;100.00;102148.06;10627659;27;20057;-69
2023/10/08 19:54:26;;;;;;;1999.90;999.90;;;;;;;13.29;100.00;102134.91;10608742;27;20047;-69
2023/10/08 19:59:30;;;;;;;1999.90;999.90;;;;;;;13.25;100.00;102121.06;10627189;27;20047;-69
2023/10/08 20:04:33;;;;;;;1999.90;999.90;;;;;;;13.36;100.00;102129.31;10625977;27;20047;-69
2023/10/08 20:09:37;;;;;;;1999.90;999.90;;;;;;;13.28;100.00;102120.03;10626007;27;20046;-69
2023/10/08 20:14:41;;;;;;;1999.90;999.90;;;;;;;13.26;100.00;102125.38;10625872;27;20549;-69
2023/10/08 20:19:44;;;;;;;1999.90;999.90;;;;;;;13.32;100.00;102113.75;10626421;27;20201;-69
2023/10/08 20:24:46;;;;;;;1999.90;999.90;;;;;;;13.44;100.00;102123.69;10626153;27;20057;-69
2023/10/08 20:29:49;;;;;;;1999.90;999.90;;;;;;;13.41;100.00;102120.34;10625914;27;20058;-69
2023/10/08 20:34:52;;;;;;;1999.90;999.90;;;;;;;13.32;100.00;102106.72;10625526;27;20064;-69
2023/10/08 20:39:54;;;;;;;1999.90;999.90;;;;;;;13.44;100.00;102107.91;10625643;27;20118;-69
2023/10/08 20:44:57;;;;;;;1999.90;999.90;;;;;;;13.37;100.00;102102.06;10607479;27;20126;-70
2023/10/08 20:50:00;;;;;;;1999.90;999.90;;;;;;;13.26;100.00;102108.75;10625267;27;20039;-69
2023/10/08 20:55:04;;;;;;;1999.90;999.90;;;;;;;13.16;100.00;102117.09;10606315;27;20057;-69
2023/10/08 21:00:07;;;;;;;1999.90;999.90;;;;;;;13.03;100.00;102110.69;10625053;27;20050;-69
2023/10/08 21:05:11;;;;;;;1999.90;999.90;;;;;;;13.08;100.00;102092.06;10624918;27;20149;-69
2023/10/08 21:10:14;;;;;;;1999.90;999.90;;;;;;;13.12;100.00;102080.50;10624757;27;20074;-70
2023/10/08 21:15:17;;;;;;;1999.90;999.90;;;;;;;13.20;100.00;102068.66;10623783;27;20434;-69
2023/10/08 21:20:22;;;;;;;1999.90;999.90;;;;;;;13.35;100.00;102061.84;10605766;28;20047;-69
2023/10/08 21:25:26;;;;;;;1999.90;999.90;;;;;;;13.15;100.00;102054.91;10589645;28;20051;-69
2023/10/08 21:30:29;;;;;;;1999.90;999.90;;;;;;;13.03;100.00;102050.22;10606154;28;20082;-69
2023/10/08 21:35:31;;;;;;;1999.90;999.90;;;;;;;13.00;100.00;102050.38;10623178;28;20415;-69
2023/10/08 21:40:34;;;;;;;1999.90;999.90;;;;;;;12.85;100.00;102044.06;10624142;28;20054;-69
2023/10/08 21:45:37;;;;;;;1999.90;999.90;;;;;;;12.68;100.00;102057.16;10623483;28;20051;-69
2023/10/08 21:50:40;;;;;;;1999.90;999.90;;;;;;;13.07;100.00;102053.56;10623276;28;20070;-69
2023/10/08 21:55:42;;;;;;;1999.90;999.90;;;;;;;13.69;100.00;102051.44;10623274;28;20483;-69
2023/10/08 22:00:45;;;;;;;1999.90;999.90;;;;;;;13.50;100.00;102039.19;10623806;28;20054;-69
2023/10/08 22:05:47;;;;;;;1999.90;999.90;;;;;;;13.88;100.00;102027.63;10605609;28;20051;-69
2023/10/08 22:10:49;;;;;;;1999.90;999.90;;;;;;;14.49;100.00;102016.50;10605371;28;20051;-69
2023/10/08 22:15:55;;;;;;;1999.90;999.90;;;;;;;14.56;100.00;101993.28;10623530;28;20047;-69
2023/10/08 22:21:06;;;;;;;1999.90;999.90;;;;;;;14.82;100.00;101999.75;10623321;28;20043;-69
2023/10/08 22:26:13;;;;;;;1999.90;999.90;;;;;;;14.91;100.00;101979.97;10623398;27;20063;-69
2023/10/08 22:31:18;;;;;;;1999.90;999.90;;;;;;;15.15;100.00;101971.56;10630310;27;20086;-69
2023/10/08 22:41:43;;;;;;;1999.90;999.90;;;;;;;15.22;100.00;101971.09;10629788;27;20515;-69
2023/10/08 22:46:46;;;;;;;1999.90;999.90;;;;;;;15.37;100.00;101964.09;10611938;27;20075;-69
2023/10/08 22:51:50;;;;;;;1999.90;999.90;;;;;;;15.36;100.00;101975.56;10630028;27;20079;-69